CheckWX is a tool to help pilots better visualize weather data.  It is not intended as a substitute for an official pre-flight weather briefing.

04:48:19 UTC

49A METAR
Gilmer County Airport
Ellijay, Georgia, USA
Current

33 mins ago

K49A 180415Z AUTO 01003KT 10SM CLR 21/19 A3008 RMK AO2 T02110187
Observed
Aug-18 @ 04:15 UTC
Wind
  • 010° at 3 KTS
Visibility
10 SM
Flight Rules
VFR
Cloud Levels
  • Clear skies
Temperature
21°C / 70°F
Dewpoint
19°C / 66°F
Humidity
88%
Altimeter
30.08" Hg
Pressure
1018.62 hPa
Previous

53 mins ago

K49A 180355Z AUTO 01003KT 10SM CLR 22/19 A3008 RMK AO2 T02150186
Observed
Aug-18 @ 03:55 UTC
Wind
  • 010° at 3 KTS
Visibility
10 SM
Flight Rules
VFR
Cloud Levels
  • Clear skies
Temperature
22°C / 72°F
Dewpoint
19°C / 66°F
Humidity
83%
Altimeter
30.08" Hg
Pressure
1018.62 hPa
Previous

1 hour ago

K49A 180335Z AUTO 00000KT 10SM CLR 22/19 A3008 RMK AO2 T02200189
Observed
Aug-18 @ 03:35 UTC
Visibility
10 SM
Flight Rules
VFR
Cloud Levels
  • Clear skies
Temperature
22°C / 72°F
Dewpoint
19°C / 66°F
Humidity
83%
Altimeter
30.08" Hg
Pressure
1018.62 hPa